createdAt,value
2023-03-31T00:00:23.915Z,2.10
2023-03-31T00:05:48.028Z,2.78
2023-03-31T00:11:10.038Z,2.75
2023-03-31T00:16:31.833Z,2.50
2023-03-31T00:21:54.493Z,2.60
2023-03-31T00:27:16.575Z,2.30
2023-03-31T00:32:38.429Z,2.30
2023-03-31T00:38:00.221Z,2.50
2023-03-31T00:43:34.116Z,2.70
2023-03-31T00:48:57.989Z,3.00
2023-03-31T00:54:21.502Z,2.78
2023-03-31T00:59:58.891Z,2.63
2023-03-31T01:05:25.927Z,2.40
2023-03-31T01:10:52.040Z,2.53
2023-03-31T01:16:13.807Z,2.47
2023-03-31T01:22:13.149Z,2.05
2023-03-31T01:28:01.715Z,2.30
2023-03-31T01:33:46.786Z,2.20
2023-03-31T01:39:14.203Z,2.20
2023-03-31T01:44:57.055Z,2.22
2023-03-31T01:50:27.789Z,2.92
2023-03-31T01:56:18.534Z,2.08
2023-03-31T02:01:56.280Z,2.15
2023-03-31T02:07:27.570Z,2.13
2023-03-31T02:12:51.563Z,2.08
2023-03-31T02:18:18.572Z,1.88
2023-03-31T02:23:41.166Z,2.30
2023-03-31T02:29:03.300Z,2.40
2023-03-31T02:34:25.090Z,2.50
2023-03-31T02:39:50.372Z,2.40
2023-03-31T02:45:47.545Z,2.30
2023-03-31T02:51:09.411Z,1.98
2023-03-31T02:56:58.605Z,2.75
2023-03-31T03:02:42.062Z,2.60
2023-03-31T03:08:18.064Z,2.25
2023-03-31T03:13:51.781Z,2.70
2023-03-31T03:19:20.491Z,2.05
2023-03-31T03:24:42.585Z,2.35
2023-03-31T03:30:06.982Z,2.10
2023-03-31T03:35:28.998Z,2.20
2023-03-31T03:40:53.910Z,1.90
2023-03-31T03:46:15.809Z,2.22
2023-03-31T03:51:37.603Z,2.63
2023-03-31T03:56:59.480Z,2.28
2023-03-31T04:02:21.352Z,2.50
2023-03-31T04:07:43.178Z,2.95
2023-03-31T04:13:04.930Z,2.78
2023-03-31T04:18:26.696Z,2.20
2023-03-31T04:23:50.282Z,2.85
2023-03-31T04:29:13.925Z,2.83
2023-03-31T04:34:36.041Z,2.90
2023-03-31T04:39:59.321Z,3.17
2023-03-31T04:45:21.126Z,3.30
2023-03-31T04:50:42.943Z,3.20
2023-03-31T04:56:06.007Z,3.10
2023-03-31T05:01:28.001Z,3.28
2023-03-31T05:06:50.357Z,3.63
2023-03-31T05:12:12.089Z,3.83
2023-03-31T05:17:35.596Z,3.38
2023-03-31T05:22:57.368Z,3.38
2023-03-31T05:28:19.106Z,3.38
2023-03-31T05:33:42.000Z,3.65
2023-03-31T05:39:06.190Z,3.80
2023-03-31T05:44:27.910Z,3.65
2023-03-31T05:49:49.651Z,4.43
2023-03-31T05:55:11.542Z,3.90
2023-03-31T06:00:33.260Z,4.55
2023-03-31T06:05:55.750Z,4.75
2023-03-31T06:11:20.498Z,4.40
2023-03-31T06:16:42.370Z,4.90
2023-03-31T06:22:04.244Z,4.82
2023-03-31T06:27:26.079Z,5.03
2023-03-31T06:32:47.856Z,5.10
2023-03-31T06:38:09.661Z,4.65
2023-03-31T06:43:31.419Z,4.90
2023-03-31T06:48:54.329Z,4.32
2023-03-31T06:54:16.066Z,4.50
2023-03-31T06:59:37.804Z,5.20
2023-03-31T07:04:59.779Z,5.35
2023-03-31T07:10:23.019Z,5.53
2023-03-31T07:15:48.194Z,4.75
2023-03-31T07:21:10.333Z,3.58
2023-03-31T07:26:32.482Z,3.65
2023-03-31T07:31:54.260Z,3.20
2023-03-31T07:37:16.085Z,3.30
2023-03-31T07:42:38.059Z,3.28
2023-03-31T07:48:00.296Z,2.30
2023-03-31T07:53:22.172Z,2.00
2023-03-31T07:58:44.258Z,1.88
2023-03-31T08:04:06.092Z,1.80
2023-03-31T08:09:27.889Z,1.50
2023-03-31T08:14:49.614Z,1.55
2023-03-31T08:20:12.027Z,1.00
2023-03-31T08:25:33.734Z,1.00
2023-03-31T08:30:56.152Z,1.00
2023-03-31T08:36:17.953Z,1.30
2023-03-31T08:42:00.781Z,1.00
2023-03-31T08:47:26.725Z,1.40
2023-03-31T08:52:54.983Z,1.20
2023-03-31T08:58:43.362Z,1.88
2023-03-31T09:04:29.824Z,1.63
2023-03-31T09:10:20.189Z,1.65
2023-03-31T09:16:05.480Z,1.50
2023-03-31T09:21:51.937Z,1.50
2023-03-31T09:27:15.008Z,1.52
2023-03-31T09:32:39.250Z,1.25
2023-03-31T09:38:01.455Z,1.27
2023-03-31T09:43:26.963Z,1.50
2023-03-31T09:48:55.104Z,1.40
2023-03-31T09:54:25.838Z,1.55
2023-03-31T09:59:51.631Z,1.80
2023-03-31T10:05:22.637Z,1.98
2023-03-31T10:10:48.152Z,1.70
2023-03-31T10:16:15.101Z,1.75
2023-03-31T10:21:38.652Z,2.05
2023-03-31T10:27:00.522Z,1.90
2023-03-31T10:32:28.761Z,1.70
2023-03-31T10:37:57.165Z,2.28
2023-03-31T10:43:21.871Z,3.47
2023-03-31T10:48:45.059Z,2.35
2023-03-31T10:54:09.075Z,2.17
2023-03-31T10:59:41.693Z,2.30
2023-03-31T11:05:15.454Z,2.05
2023-03-31T11:10:41.930Z,1.85
2023-03-31T11:16:39.343Z,1.70
2023-03-31T11:22:19.451Z,1.50
2023-03-31T11:28:18.220Z,1.38
2023-03-31T11:34:06.254Z,1.33
2023-03-31T11:39:46.064Z,1.10
2023-03-31T11:45:22.616Z,0.80
2023-03-31T11:50:47.281Z,0.90
2023-03-31T11:56:12.192Z,0.60
2023-03-31T12:01:44.551Z,0.80
2023-03-31T12:07:29.487Z,0.88
2023-03-31T12:13:03.201Z,0.70
2023-03-31T12:18:28.306Z,0.80
2023-03-31T12:23:50.240Z,0.60
2023-03-31T12:29:32.976Z,1.10
2023-03-31T12:35:02.129Z,1.02
2023-03-31T12:40:41.751Z,0.65
2023-03-31T12:46:18.679Z,0.80
2023-03-31T12:52:04.293Z,0.80
2023-03-31T12:57:26.879Z,1.00
2023-03-31T13:02:50.147Z,0.90
2023-03-31T13:08:50.626Z,1.08
2023-03-31T13:14:28.744Z,1.45
2023-03-31T13:19:51.712Z,1.70
2023-03-31T13:25:35.526Z,1.13
2023-03-31T13:31:09.400Z,1.25
2023-03-31T13:36:34.476Z,1.05
2023-03-31T13:42:36.229Z,0.60
2023-03-31T13:48:14.940Z,0.60
2023-03-31T13:53:45.504Z,0.63
2023-03-31T13:59:14.962Z,0.60
2023-03-31T14:04:54.824Z,0.60
2023-03-31T14:10:49.324Z,0.57
2023-03-31T14:16:14.188Z,0.88
2023-03-31T14:21:59.646Z,0.70
2023-03-31T14:27:50.410Z,0.80
2023-03-31T14:33:26.886Z,0.63
2023-03-31T14:38:48.709Z,0.95
2023-03-31T14:44:15.900Z,0.80
2023-03-31T14:49:39.114Z,1.00
2023-03-31T14:55:01.329Z,0.80
2023-03-31T15:00:30.725Z,0.63
2023-03-31T15:05:57.462Z,0.70
2023-03-31T15:11:21.935Z,1.10
2023-03-31T15:16:45.186Z,0.88
2023-03-31T15:22:18.980Z,0.90
2023-03-31T15:27:45.181Z,0.80
2023-03-31T15:38:59.052Z,0.95
2023-03-31T15:44:43.573Z,0.93
2023-03-31T15:50:08.203Z,1.20
2023-03-31T15:55:39.250Z,1.00
2023-03-31T16:01:05.593Z,1.25
2023-03-31T16:06:43.869Z,1.25
2023-03-31T16:12:14.855Z,1.48
2023-03-31T16:17:42.999Z,1.13
2023-03-31T16:23:16.271Z,1.23
2023-03-31T16:28:38.528Z,0.98
2023-03-31T16:34:01.161Z,1.00
2023-03-31T16:39:22.869Z,1.10
2023-03-31T16:44:52.904Z,0.90
2023-03-31T16:50:22.386Z,1.10
2023-03-31T16:55:44.511Z,0.85
2023-03-31T17:01:07.805Z,1.10
2023-03-31T17:06:29.606Z,1.00
2023-03-31T17:11:51.398Z,0.95
2023-03-31T17:17:14.756Z,0.73
2023-03-31T17:22:38.456Z,0.70
2023-03-31T17:28:01.878Z,0.60
2023-03-31T17:33:23.727Z,0.80
2023-03-31T17:38:45.555Z,1.15
2023-03-31T17:44:08.719Z,0.73
2023-03-31T17:49:30.691Z,1.30
2023-03-31T17:54:53.297Z,1.30
2023-03-31T18:00:16.535Z,0.95
2023-03-31T18:05:39.274Z,2.20
2023-03-31T18:11:02.842Z,1.67
2023-03-31T18:16:24.806Z,1.70
2023-03-31T18:21:46.680Z,0.80
2023-03-31T18:27:08.537Z,0.80
2023-03-31T18:32:30.835Z,1.20
2023-03-31T18:37:53.426Z,1.50
2023-03-31T18:43:15.507Z,1.90
2023-03-31T18:48:38.437Z,1.77
2023-03-31T18:54:00.207Z,1.95
2023-03-31T18:59:22.002Z,1.40
2023-03-31T19:04:48.024Z,1.40
2023-03-31T19:10:10.214Z,1.10
2023-03-31T19:15:33.182Z,1.20
2023-03-31T19:20:55.572Z,1.63
2023-03-31T19:26:19.466Z,1.48
2023-03-31T19:31:41.516Z,1.25
2023-03-31T19:37:03.860Z,1.70
2023-03-31T19:42:25.687Z,1.30
2023-03-31T19:47:47.589Z,1.27
2023-03-31T19:53:09.402Z,2.15
2023-03-31T19:58:35.068Z,1.63
2023-03-31T20:03:57.175Z,1.35
2023-03-31T20:09:19.169Z,1.50
2023-03-31T20:14:40.984Z,2.03
2023-03-31T20:20:03.130Z,1.40
2023-03-31T20:25:24.910Z,1.60
2023-03-31T20:30:46.648Z,1.65
2023-03-31T20:36:11.377Z,1.52
2023-03-31T20:41:35.173Z,1.75
2023-03-31T20:46:59.025Z,1.67
2023-03-31T20:52:20.924Z,1.73
2023-03-31T20:57:42.666Z,1.65
2023-03-31T21:03:04.537Z,1.58
2023-03-31T21:08:26.344Z,1.45
2023-03-31T21:13:48.763Z,1.50
2023-03-31T21:19:11.067Z,1.55
2023-03-31T21:24:32.832Z,1.00
2023-03-31T21:29:54.786Z,1.27
2023-03-31T21:35:17.818Z,1.00
2023-03-31T21:40:39.610Z,1.60
2023-03-31T21:46:01.998Z,1.20
2023-03-31T21:51:24.759Z,1.65
2023-03-31T21:56:46.571Z,1.25
2023-03-31T22:02:08.378Z,1.52
2023-03-31T22:07:30.536Z,1.48
2023-03-31T22:12:52.343Z,1.30
2023-03-31T22:18:14.239Z,1.65
2023-03-31T22:23:36.137Z,1.15
2023-03-31T22:28:58.156Z,1.17
2023-03-31T22:34:19.993Z,1.48
2023-03-31T22:39:42.469Z,0.77
2023-03-31T22:45:04.655Z,0.93
2023-03-31T22:50:27.207Z,0.60
2023-03-31T22:55:53.815Z,0.93
2023-03-31T23:01:19.352Z,0.82
2023-03-31T23:06:41.156Z,0.65
2023-03-31T23:12:03.023Z,0.60
2023-03-31T23:17:24.792Z,0.70
2023-03-31T23:22:46.588Z,0.80
2023-03-31T23:28:08.447Z,0.70
2023-03-31T23:33:30.565Z,0.52
2023-03-31T23:38:54.106Z,0.60
2023-03-31T23:44:16.701Z,0.80
2023-03-31T23:49:38.441Z,0.70
2023-03-31T23:55:00.343Z,0.70
